Time;durP1;ratioP1;P1;durP2;ratioP2;P2;SDS_P1;SDS_P2;PMS_P1;PMS_P2;Temp;Humidity;BMP_temperature;BMP_pressure;BME280_temperature;BME280_humidity;BME280_pressure;Samples;Min_cycle;Max_cycle;Signal;HPM_P1;HPM_P2
2023/07/21 00:00:10;;;;;;;6.10;5.20;;;;;;;18.62;94.92;99821.65;107702;1259;62060;-80
2023/07/21 00:02:38;;;;;;;6.10;5.10;;;;;;;18.60;94.73;99822.73;107700;1259;60545;-79
2023/07/21 00:05:06;;;;;;;9.50;5.30;;;;;;;18.56;94.47;99821.09;107748;1260;72982;-79
2023/07/21 00:07:35;;;;;;;7.90;5.50;;;;;;;18.51;94.37;99819.15;107702;1260;72969;-80
2023/07/21 00:10:09;;;;;;;6.90;5.30;;;;;;;18.48;94.34;99819.86;107736;1259;70239;-80
2023/07/21 00:12:40;;;;;;;6.00;5.40;;;;;;;18.45;94.34;99821.41;107747;1260;63200;-79
2023/07/21 00:15:08;;;;;;;7.40;5.50;;;;;;;18.41;94.42;99824.40;107707;1260;60063;-79
2023/07/21 00:17:35;;;;;;;7.80;5.70;;;;;;;18.37;94.50;99830.56;107719;1258;73937;-79
2023/07/21 00:20:14;;;;;;;9.00;5.40;;;;;;;18.33;94.67;99826.70;107742;1259;71410;-80
2023/07/21 00:22:42;;;;;;;10.20;5.90;;;;;;;18.29;94.67;99827.33;107718;1259;73950;-80
2023/07/21 00:25:11;;;;;;;6.40;5.60;;;;;;;18.26;94.63;99829.75;107709;1259;61680;-80
2023/07/21 00:27:39;;;;;;;7.90;5.80;;;;;;;18.22;94.66;99837.40;107748;1258;60275;-80
2023/07/21 00:30:07;;;;;;;7.80;6.10;;;;;;;18.20;94.76;99839.04;107705;1260;73074;-81
2023/07/21 00:32:41;;;;;;;7.90;5.80;;;;;;;18.19;94.91;99840.11;107718;1260;72891;-79
2023/07/21 00:35:09;;;;;;;7.40;6.00;;;;;;;18.19;95.19;99832.27;107795;1259;72758;-81
2023/07/21 00:37:37;;;;;;;8.40;5.90;;;;;;;18.20;95.30;99835.70;107713;1259;61974;-77
2023/07/21 00:40:09;;;;;;;10.00;5.80;;;;;;;18.22;95.35;99829.45;107947;1256;59542;-80
2023/07/21 00:42:37;;;;;;;8.20;5.30;;;;;;;18.41;94.69;99839.30;107700;1256;73056;-77
2023/07/21 00:45:05;;;;;;;7.10;5.30;;;;;;;18.61;93.30;99842.08;107823;1256;72668;-78
2023/07/21 00:47:34;;;;;;;8.60;4.90;;;;;;;18.66;92.50;99840.75;107804;1261;71461;-78
2023/07/21 00:50:27;;;;;;;6.50;4.70;;;;;;;18.69;91.93;99844.32;107946;1256;62077;-80
2023/07/21 00:53:14;;;;;;;5.80;3.80;;;;;;;18.72;91.38;99842.77;108094;1256;59746;-82
2023/07/21 00:55:59;;;;;;;4.90;3.70;;;;;;;18.70;89.90;99832.33;107991;1256;72095;-79
2023/07/21 00:59:17;;;;;;;5.70;3.70;;;;;;;18.68;89.07;99838.88;108022;1256;71450;-81
2023/07/21 01:02:14;;;;;;;4.60;3.70;;;;;;;18.66;88.35;99840.67;107808;1255;72201;-80
2023/07/21 01:04:44;;;;;;;6.00;3.50;;;;;;;18.44;88.37;99847.94;107978;1256;61837;-80
2023/07/21 01:07:10;;;;;;;5.60;3.70;;;;;;;18.24;89.02;99838.04;107990;1256;58842;-82
2023/07/21 01:09:38;;;;;;;4.10;3.40;;;;;;;18.23;89.08;99835.08;107973;1256;73170;-80
2023/07/21 01:12:06;;;;;;;3.80;3.20;;;;;;;18.22;89.03;99839.03;107801;1256;72811;-79
2023/07/21 01:14:35;;;;;;;6.30;3.50;;;;;;;18.20;89.08;99848.23;107924;1256;72675;-81
2023/07/21 01:17:02;;;;;;;4.30;3.20;;;;;;;18.21;89.31;99847.94;107996;1256;62007;-80
2023/07/21 01:19:30;;;;;;;5.00;3.80;;;;;;;18.22;89.34;99844.20;107915;1255;60352;-80
2023/07/21 01:22:12;;;;;;;4.80;3.80;;;;;;;18.23;89.19;99841.60;107772;1256;73111;-80
2023/07/21 01:24:51;;;;;;;5.10;3.60;;;;;;;18.23;89.00;99848.63;107883;1256;72714;-80
2023/07/21 01:27:22;;;;;;;4.80;3.60;;;;;;;18.23;89.10;99853.19;107935;1256;72740;-80
2023/07/21 01:29:50;;;;;;;5.30;3.60;;;;;;;18.19;88.83;99854.91;107917;1257;62627;-79
2023/07/21 01:32:21;;;;;;;5.40;3.50;;;;;;;18.17;88.55;99862.35;107797;1255;60405;-80
2023/07/21 01:34:49;;;;;;;5.50;3.50;;;;;;;18.15;88.34;99859.05;107841;1256;73053;-79
2023/07/21 01:37:17;;;;;;;4.50;3.50;;;;;;;18.16;88.15;99862.70;107767;1256;72300;-80
2023/07/21 01:39:44;;;;;;;6.20;3.60;;;;;;;18.16;87.95;99867.25;107845;1257;72647;-80
2023/07/21 01:42:11;;;;;;;5.90;3.70;;;;;;;18.15;87.84;99867.70;107733;1256;61831;-79
2023/07/21 01:44:39;;;;;;;5.00;3.40;;;;;;;18.14;87.23;99868.14;108027;1257;60498;-79
2023/07/21 01:47:06;;;;;;;5.70;3.60;;;;;;;18.16;87.24;99873.74;107973;1257;71762;-79
2023/07/21 01:49:34;;;;;;;4.60;3.60;;;;;;;18.18;87.18;99879.61;107895;1256;72735;-82
2023/07/21 01:52:04;;;;;;;6.00;3.20;;;;;;;18.20;87.07;99882.19;107920;1260;74006;-80
2023/07/21 01:54:41;;;;;;;5.60;3.60;;;;;;;18.21;86.63;99881.68;107880;1256;62046;-79
2023/07/21 01:57:08;;;;;;;5.50;3.60;;;;;;;18.42;85.54;99881.36;107733;1255;60424;-82
2023/07/21 01:59:35;;;;;;;5.80;3.80;;;;;;;18.58;84.07;99886.02;107834;1259;71811;-80
2023/07/21 02:02:02;;;;;;;4.90;3.50;;;;;;;18.63;83.48;99888.66;107877;1257;72558;-80
2023/07/21 02:04:29;;;;;;;4.80;3.60;;;;;;;18.64;82.81;99890.50;107797;1256;72711;-79
2023/07/21 02:06:57;;;;;;;5.30;3.40;;;;;;;18.65;82.31;99897.42;107735;1257;62999;-80
2023/07/21 02:09:24;;;;;;;5.30;3.50;;;;;;;18.66;82.13;99905.42;108034;1256;60327;-82
2023/07/21 02:11:51;;;;;;;4.50;3.40;;;;;;;18.66;81.79;99907.27;107861;1256;72768;-82
2023/07/21 02:14:47;;;;;;;5.20;3.10;;;;;;;18.66;81.47;99912.29;107795;1256;72563;-79
2023/07/21 02:17:14;;;;;;;5.60;3.40;;;;;;;18.66;81.05;99912.70;107925;1256;72716;-80
2023/07/21 02:19:42;;;;;;;5.30;3.70;;;;;;;18.67;80.83;99908.72;107932;1256;60870;-80
2023/07/21 02:22:08;;;;;;;6.00;3.80;;;;;;;18.68;80.67;99905.55;107792;1255;60231;-80
2023/07/21 02:24:35;;;;;;;6.20;3.90;;;;;;;18.69;80.66;99905.95;108006;1256;72776;-79
2023/07/21 02:27:07;;;;;;;5.00;3.90;;;;;;;18.70;80.43;99908.61;107984;1256;72648;-81
2023/07/21 02:29:34;;;;;;;5.70;3.80;;;;;;;18.68;80.20;99908.67;107845;1256;72488;-81
2023/07/21 02:32:01;;;;;;;4.30;3.70;;;;;;;18.66;79.92;99915.77;107720;1256;61804;-80
2023/07/21 02:34:29;;;;;;;5.20;3.80;;;;;;;18.63;79.88;99918.30;107975;1257;60200;-80
2023/07/21 02:36:56;;;;;;;6.60;3.80;;;;;;;18.61;79.91;99915.11;107768;1256;71597;-80
2023/07/21 02:39:25;;;;;;;7.90;3.90;;;;;;;18.58;79.93;99919.94;107989;1257;71588;-80
2023/07/21 02:41:51;;;;;;;5.60;3.90;;;;;;;18.56;79.97;99924.98;107666;1256;72498;-80
2023/07/21 02:44:20;;;;;;;5.70;3.60;;;;;;;18.55;80.13;99928.24;107882;1256;61814;-80
2023/07/21 02:46:47;;;;;;;4.90;3.60;;;;;;;18.54;80.29;99939.72;107962;1256;60569;-80
2023/07/21 02:49:16;;;;;;;4.60;3.60;;;;;;;18.53;80.18;99940.63;107781;1259;73875;-81
2023/07/21 02:51:43;;;;;;;4.60;3.60;;;;;;;18.54;80.18;99947.58;107775;1256;72172;-80
2023/07/21 02:54:10;;;;;;;4.10;3.60;;;;;;;18.52;79.91;99944.13;107767;1261;72751;-80
2023/07/21 02:56:37;;;;;;;5.20;3.30;;;;;;;18.48;79.54;99945.38;107808;1256;61789;-80
2023/07/21 02:59:09;;;;;;;5.70;3.80;;;;;;;18.48;79.47;99951.80;107937;1256;59449;-79
2023/07/21 03:01:36;;;;;;;4.70;3.30;;;;;;;18.48;79.23;99953.70;107819;1256;73847;-81
2023/07/21 03:04:03;;;;;;;6.60;3.40;;;;;;;18.47;79.01;99951.48;107824;1259;71565;-80
2023/07/21 03:06:31;;;;;;;6.10;3.90;;;;;;;18.47;78.82;99954.83;107693;1256;72702;-80
2023/07/21 03:08:59;;;;;;;4.80;3.50;;;;;;;18.46;78.76;99954.64;107817;1256;61927;-79
2023/07/21 03:11:28;;;;;;;6.60;3.70;;;;;;;18.44;78.94;99957.86;107747;1256;60503;-80
2023/07/21 03:14:15;;;;;;;7.10;3.80;;;;;;;18.44;79.02;99962.59;107995;1259;76093;-80
2023/07/21 03:16:42;;;;;;;5.10;4.20;;;;;;;18.45;78.89;99968.18;107877;1256;72871;-81
2023/07/21 03:19:10;;;;;;;6.20;4.10;;;;;;;18.47;78.98;99967.33;107789;1262;72667;-79
2023/07/21 03:21:38;;;;;;;5.50;4.10;;;;;;;18.49;78.95;99972.05;107939;1256;60934;-79
2023/07/21 03:24:07;;;;;;;5.00;3.80;;;;;;;18.51;78.80;99972.22;107835;1255;60517;-81
2023/07/21 03:26:34;;;;;;;5.20;4.20;;;;;;;18.55;78.84;99973.59;107911;1260;72502;-80
2023/07/21 03:29:03;;;;;;;5.80;4.50;;;;;;;18.54;78.59;99972.64;107761;1256;72926;-80
2023/07/21 03:31:30;;;;;;;6.10;4.30;;;;;;;18.59;78.45;99974.61;107888;1256;73978;-80
2023/07/21 03:33:59;;;;;;;6.90;4.50;;;;;;;18.60;78.31;99978.13;107906;1256;61796;-81
2023/07/21 03:36:27;;;;;;;6.30;4.80;;;;;;;18.60;78.17;99981.86;107919;1256;60299;-80
2023/07/21 03:38:55;;;;;;;5.00;4.50;;;;;;;18.62;78.05;99988.72;108064;1255;73731;-81
2023/07/21 03:41:21;;;;;;;8.30;5.10;;;;;;;18.63;78.04;99988.30;107988;1256;71264;-80
2023/07/21 03:43:49;;;;;;;6.80;4.60;;;;;;;18.65;77.80;99992.42;108042;1256;71753;-79
2023/07/21 03:46:16;;;;;;;6.20;5.10;;;;;;;18.66;77.66;99995.77;108047;1256;61848;-80
2023/07/21 03:49:05;;;;;;;5.90;5.10;;;;;;;18.68;77.68;100004.98;108051;1256;60283;-78
2023/07/21 03:51:34;;;;;;;6.20;5.50;;;;;;;18.74;77.78;100001.35;108065;1259;73672;-80
2023/07/21 03:54:02;;;;;;;6.20;5.30;;;;;;;18.81;77.73;100003.27;108007;1257;71586;-79
2023/07/21 03:56:29;;;;;;;7.10;5.40;;;;;;;18.92;78.02;100011.98;107698;1255;73593;-79
2023/07/21 03:58:59;;;;;;;6.10;5.50;;;;;;;19.03;77.82;100008.55;107937;1256;60762;-80
2023/07/21 04:01:28;;;;;;;6.10;4.90;;;;;;;19.11;77.60;100007.80;107837;1256;60630;-79
2023/07/21 04:03:55;;;;;;;7.70;5.50;;;;;;;19.20;77.53;100015.55;107845;1256;73879;-79
2023/07/21 04:06:24;;;;;;;8.50;5.80;;;;;;;19.31;77.52;100018.44;107720;1257;72712;-80
2023/07/21 04:08:53;;;;;;;8.50;5.50;;;;;;;19.40;77.10;100014.08;107989;1256;72728;-79
2023/07/21 04:11:21;;;;;;;6.40;5.00;;;;;;;19.48;76.57;100017.40;107920;1256;61742;-79
2023/07/21 04:13:48;;;;;;;7.20;5.30;;;;;;;19.53;75.90;100018.91;107717;1256;60440;-80
2023/07/21 04:16:19;;;;;;;6.90;5.10;;;;;;;19.56;75.49;100022.73;107680;1263;73683;-82
2023/07/21 04:18:48;;;;;;;9.10;5.70;;;;;;;19.58;74.97;100023.36;107849;1256;72509;-83
2023/07/21 04:21:16;;;;;;;9.70;5.70;;;;;;;19.62;74.95;100027.66;108028;1255;71285;-81
2023/07/21 04:23:44;;;;;;;7.00;5.20;;;;;;;19.68;74.86;100025.91;107851;1255;61754;-79
2023/07/21 04:26:15;;;;;;;9.60;5.70;;;;;;;19.74;74.68;100031.86;107990;1256;60391;-79
2023/07/21 04:28:43;;;;;;;7.70;5.90;;;;;;;19.79;74.39;100034.36;108022;1257;73808;-81
2023/07/21 04:31:09;;;;;;;7.60;5.70;;;;;;;19.89;74.52;100039.20;107916;1256;72496;-82
2023/07/21 04:33:47;;;;;;;6.90;5.50;;;;;;;20.03;74.01;100047.92;107977;1257;72834;-82
2023/07/21 04:36:14;;;;;;;7.20;5.10;;;;;;;20.10;73.36;100041.67;107868;1257;61965;-81
2023/07/21 04:38:42;;;;;;;6.80;4.60;;;;;;;20.08;73.43;100039.66;107919;1256;60398;-80
2023/07/21 04:41:14;;;;;;;9.00;5.00;;;;;;;19.93;73.84;100046.89;107993;1257;72604;-81
2023/07/21 04:43:41;;;;;;;10.00;5.30;;;;;;;19.90;73.64;100054.66;107868;1257;73095;-80
2023/07/21 04:46:09;;;;;;;8.90;5.40;;;;;;;19.86;73.52;100058.34;107898;1255;72743;-82
2023/07/21 04:48:39;;;;;;;7.90;4.80;;;;;;;19.84;73.56;100055.38;107969;1255;61902;-82
2023/07/21 04:51:08;;;;;;;5.70;4.80;;;;;;;19.80;73.18;100056.95;107981;1257;60498;-83
2023/07/21 04:53:36;;;;;;;9.00;5.30;;;;;;;19.69;73.01;100055.98;107857;1256;73930;-84
2023/07/21 04:56:05;;;;;;;7.50;5.50;;;;;;;19.62;73.21;100063.52;108011;1255;72593;-81
2023/07/21 04:58:38;;;;;;;6.70;4.80;;;;;;;19.57;73.78;100063.77;107912;1255;72539;-80
2023/07/21 05:01:06;;;;;;;7.40;4.30;;;;;;;19.61;74.15;100066.23;107946;1256;62106;-81
2023/07/21 05:03:33;;;;;;;7.30;4.90;;;;;;;19.65;73.87;100068.23;107884;1256;60654;-81
2023/07/21 05:06:12;;;;;;;7.00;4.90;;;;;;;19.71;73.94;100067.76;107957;1256;72660;-81
2023/07/21 05:08:47;;;;;;;7.30;4.60;;;;;;;19.84;73.85;100073.66;107948;1259;71471;-79
2023/07/21 05:11:15;;;;;;;8.30;4.90;;;;;;;19.94;72.84;100078.80;108001;1255;71136;-81
2023/07/21 05:13:48;;;;;;;8.40;4.80;;;;;;;20.09;71.46;100079.19;108007;1256;61805;-81
2023/07/21 05:16:22;;;;;;;7.20;5.30;;;;;;;19.97;71.63;100078.94;107998;1255;60701;-79
2023/07/21 05:19:16;;;;;;;8.00;5.00;;;;;;;20.01;72.15;100078.90;107720;1256;73621;-80
2023/07/21 05:22:08;;;;;;;;;;;;;;;20.09;72.07;100084.39;107818;1256;73694;-81
2023/07/21 05:25:09;;;;;;;8.00;5.50;;;;;;;20.13;71.90;100081.77;107964;1256;72517;-80
2023/07/21 05:27:38;;;;;;;8.20;5.40;;;;;;;20.20;71.67;100078.20;107768;1256;62252;-81
2023/07/21 05:30:11;;;;;;;7.30;5.20;;;;;;;20.29;71.04;100083.09;107998;1257;61561;-80
2023/07/21 05:32:41;;;;;;;6.40;5.00;;;;;;;20.23;70.04;100091.73;107957;1257;73666;-81
2023/07/21 05:35:13;;;;;;;7.80;5.40;;;;;;;20.10;69.39;100094.58;107849;1257;71649;-80
2023/07/21 05:37:43;;;;;;;6.80;5.00;;;;;;;20.03;69.29;100099.34;107906;1256;72405;-80
2023/07/21 05:40:11;;;;;;;7.10;4.70;;;;;;;19.99;69.36;100092.09;107979;1255;61202;-80
2023/07/21 05:42:38;;;;;;;6.90;5.00;;;;;;;20.04;69.19;100096.30;107947;1256;60335;-80
2023/07/21 05:45:06;;;;;;;6.70;5.10;;;;;;;20.09;68.76;100098.20;107977;1256;73816;-81
2023/07/21 05:47:34;;;;;;;6.60;4.00;;;;;;;20.19;68.18;100102.73;107963;1255;74120;-80
2023/07/21 05:50:01;;;;;;;6.40;4.30;;;;;;;20.30;68.24;100108.91;107809;1257;72966;-80
2023/07/21 05:52:31;;;;;;;7.80;4.40;;;;;;;20.43;67.83;100114.42;107964;1255;62109;-80
2023/07/21 05:54:58;;;;;;;4.90;4.00;;;;;;;20.56;66.86;100114.45;107843;1256;60243;-79
2023/07/21 05:57:28;;;;;;;6.10;4.50;;;;;;;20.43;66.51;100114.10;108033;1257;73975;-78
2023/07/21 05:59:56;;;;;;;6.80;4.90;;;;;;;20.33;66.28;100120.44;107827;1255;72600;-77
2023/07/21 06:02:23;;;;;;;6.40;4.40;;;;;;;20.35;66.16;100120.75;107795;1255;72632;-81
2023/07/21 06:04:57;;;;;;;6.50;4.00;;;;;;;20.70;65.06;100118.56;107998;1257;62001;-81
2023/07/21 06:07:36;;;;;;;6.40;4.10;;;;;;;20.83;64.34;100116.08;107785;1257;60579;-79
2023/07/21 06:10:21;;;;;;;4.90;3.90;;;;;;;20.94;63.42;100121.55;107856;1256;73802;-82
2023/07/21 06:13:09;;;;;;;6.00;4.10;;;;;;;21.06;62.98;100117.77;107791;1256;72848;-79
2023/07/21 06:15:51;;;;;;;6.90;4.30;;;;;;;21.17;62.74;100126.33;107735;1256;73000;-80
2023/07/21 06:18:26;;;;;;;6.60;4.50;;;;;;;21.23;62.54;100121.42;107995;1255;62015;-83
2023/07/21 06:20:53;;;;;;;4.90;4.00;;;;;;;21.23;62.16;100120.10;107828;1256;60435;-83
2023/07/21 06:23:24;;;;;;;6.20;4.00;;;;;;;21.20;62.28;100124.98;107883;1262;73731;-79
2023/07/21 06:25:54;;;;;;;5.90;3.80;;;;;;;21.28;62.43;100128.95;107663;1257;73818;-82
2023/07/21 06:28:32;;;;;;;6.30;4.50;;;;;;;21.32;61.57;100130.86;108054;1259;73974;-80
2023/07/21 06:31:00;;;;;;;6.40;4.00;;;;;;;21.29;61.19;100134.48;107560;1256;63636;-81
2023/07/21 06:33:46;;;;;;;5.80;4.20;;;;;;;21.30;61.27;100133.44;107960;1255;60803;-79
2023/07/21 06:36:42;;;;;;;5.10;4.10;;;;;;;21.42;61.24;100131.89;107509;1256;75017;-79
2023/07/21 06:39:22;;;;;;;6.30;4.50;;;;;;;21.59;60.90;100132.45;107957;1256;72745;-80
2023/07/21 06:41:55;;;;;;;5.30;4.10;;;;;;;21.73;60.64;100133.48;107949;1259;72668;-79
2023/07/21 06:44:38;;;;;;;6.80;4.40;;;;;;;21.96;60.67;100135.27;107950;1256;62043;-79
2023/07/21 06:47:27;;;;;;;7.60;4.60;;;;;;;22.26;60.00;100134.75;107991;1256;60415;-79
2023/07/21 06:50:20;;;;;;;6.40;4.00;;;;;;;22.43;58.52;100131.16;107689;1257;73688;-79
2023/07/21 06:52:50;;;;;;;6.30;4.20;;;;;;;22.47;58.40;100135.89;108001;1256;72856;-79
2023/07/21 06:55:21;;;;;;;5.80;4.00;;;;;;;22.49;58.37;100136.15;107789;1257;72430;-80
2023/07/21 06:57:48;;;;;;;5.90;3.50;;;;;;;22.51;57.99;100137.23;107950;1255;61930;-78
2023/07/21 07:00:16;;;;;;;5.30;3.80;;;;;;;22.40;57.62;100145.65;107914;1256;60348;-80
2023/07/21 07:02:48;;;;;;;6.10;3.90;;;;;;;22.23;57.38;100151.22;107985;1256;73938;-80
2023/07/21 07:05:16;;;;;;;5.10;4.00;;;;;;;22.13;58.01;100159.07;107794;1256;71659;-78
2023/07/21 07:07:43;;;;;;;7.10;4.00;;;;;;;22.07;58.15;100154.55;107908;1256;73645;-80
2023/07/21 07:10:13;;;;;;;6.00;3.80;;;;;;;22.08;58.30;100158.52;107965;1257;61956;-80
2023/07/21 07:12:41;;;;;;;6.00;4.50;;;;;;;22.09;58.33;100160.27;107939;1257;60286;-79
2023/07/21 07:15:10;;;;;;;8.10;5.20;;;;;;;22.18;58.45;100162.65;107977;1258;73950;-79
2023/07/21 07:17:38;;;;;;;5.00;4.00;;;;;;;22.39;58.28;100161.16;108002;1256;71377;-79
2023/07/21 07:20:09;;;;;;;7.20;4.70;;;;;;;22.54;57.73;100160.48;107887;1256;72529;-80
2023/07/21 07:22:38;;;;;;;7.40;4.30;;;;;;;22.59;57.58;100161.48;107926;1256;63346;-77
2023/07/21 07:25:06;;;;;;;6.50;4.20;;;;;;;22.71;57.01;100162.24;108008;1256;59371;-77
2023/07/21 07:27:34;;;;;;;6.90;5.00;;;;;;;22.92;56.71;100162.28;107999;1257;73998;-77
2023/07/21 07:30:01;;;;;;;6.90;4.80;;;;;;;23.09;56.26;100162.58;107939;1256;72586;-80
2023/07/21 07:32:29;;;;;;;7.30;3.90;;;;;;;23.13;56.21;100164.45;107889;1256;73043;-78
2023/07/21 07:34:58;;;;;;;5.80;4.00;;;;;;;23.29;55.84;100159.88;108000;1256;61693;-78
2023/07/21 07:37:28;;;;;;;7.50;4.20;;;;;;;23.29;55.47;100159.65;107991;1255;60293;-78
2023/07/21 07:39:55;;;;;;;6.80;4.20;;;;;;;23.19;55.20;100158.45;108044;1257;72727;-78
2023/07/21 07:42:23;;;;;;;6.20;4.10;;;;;;;23.10;55.64;100155.52;107948;1257;72714;-78
2023/07/21 07:44:55;;;;;;;6.20;4.10;;;;;;;23.21;55.40;100155.92;108005;1256;72747;-79
2023/07/21 07:47:22;;;;;;;9.60;4.90;;;;;;;23.15;55.40;100160.84;107843;1256;61920;-78
2023/07/21 07:49:50;;;;;;;6.00;4.20;;;;;;;22.74;56.80;100161.48;108010;1256;60421;-79
2023/07/21 07:52:18;;;;;;;6.20;4.10;;;;;;;22.56;56.22;100165.65;107947;1256;73114;-79
2023/07/21 07:54:45;;;;;;;6.30;4.10;;;;;;;22.34;56.55;100165.75;107968;1257;72724;-79
2023/07/21 07:57:12;;;;;;;6.20;3.90;;;;;;;22.28;57.45;100167.75;107974;1256;73136;-79
2023/07/21 07:59:39;;;;;;;7.60;4.40;;;;;;;22.29;57.19;100174.10;107968;1257;61788;-78
2023/07/21 08:02:06;;;;;;;6.10;4.20;;;;;;;22.31;56.87;100175.23;107956;1256;60406;-78
2023/07/21 08:04:34;;;;;;;4.50;3.70;;;;;;;22.38;56.81;100173.32;107990;1257;73848;-79
2023/07/21 08:07:01;;;;;;;6.40;4.10;;;;;;;22.48;56.17;100175.32;107946;1256;71737;-78
2023/07/21 08:09:28;;;;;;;4.70;3.60;;;;;;;22.61;56.28;100173.66;107975;1256;72594;-79
2023/07/21 08:11:56;;;;;;;7.90;3.50;;;;;;;22.77;56.08;100174.17;107996;1259;62937;-79
2023/07/21 08:14:26;;;;;;;5.70;3.60;;;;;;;22.94;55.15;100175.58;108003;1257;60406;-78
2023/07/21 08:16:55;;;;;;;5.00;3.70;;;;;;;22.99;54.15;100168.63;107918;1257;73954;-78
2023/07/21 08:19:22;;;;;;;5.10;3.10;;;;;;;23.04;54.05;100174.51;108014;1257;73056;-78
2023/07/21 08:21:49;;;;;;;6.50;3.50;;;;;;;23.08;53.60;100171.89;107926;1256;72457;-80
2023/07/21 08:24:16;;;;;;;5.70;3.70;;;;;;;23.07;52.96;100172.17;107985;1256;60294;-79
2023/07/21 08:26:43;;;;;;;5.00;3.70;;;;;;;23.02;53.36;100178.02;108016;1259;60280;-78
2023/07/21 08:29:10;;;;;;;4.70;3.40;;;;;;;23.05;54.12;100180.05;107955;1257;73916;-78
2023/07/21 08:31:38;;;;;;;5.40;3.80;;;;;;;23.15;54.21;100181.56;107960;1257;72536;-79
2023/07/21 08:34:05;;;;;;;6.40;3.40;;;;;;;23.23;53.19;100189.69;107950;1256;72487;-78
2023/07/21 08:36:32;;;;;;;6.00;3.50;;;;;;;23.26;52.89;100193.75;107917;1256;60475;-78
2023/07/21 08:39:14;;;;;;;5.30;3.50;;;;;;;23.32;52.39;100190.13;107891;1256;60301;-79
2023/07/21 08:41:46;;;;;;;5.90;3.50;;;;;;;23.39;52.56;100187.04;107789;1256;73870;-78
2023/07/21 08:44:14;;;;;;;5.40;3.60;;;;;;;23.54;52.71;100188.52;108474;1257;72944;-78
2023/07/21 08:46:41;;;;;;;6.20;3.50;;;;;;;23.70;51.73;100182.81;107800;1257;73870;-78
2023/07/21 08:49:08;;;;;;;4.70;2.90;;;;;;;23.86;51.26;100183.67;107918;1256;60430;-77
2023/07/21 08:51:37;;;;;;;3.80;2.70;;;;;;;23.96;50.53;100188.94;107920;1257;60997;-79
2023/07/21 08:54:04;;;;;;;6.10;3.10;;;;;;;24.00;50.26;100189.98;107932;1257;73925;-78
2023/07/21 08:56:31;;;;;;;4.60;2.70;;;;;;;24.05;49.56;100188.52;107966;1256;72556;-78
2023/07/21 08:58:58;;;;;;;3.80;2.60;;;;;;;24.15;49.72;100191.84;107934;1256;71379;-77
2023/07/21 09:01:28;;;;;;;5.30;2.70;;;;;;;24.43;49.18;100189.88;107945;1256;60630;-77
2023/07/21 09:03:55;;;;;;;4.70;3.00;;;;;;;24.46;48.63;100192.83;108008;1256;60349;-78
2023/07/21 09:06:22;;;;;;;6.50;3.20;;;;;;;24.58;47.55;100191.98;108000;1257;74544;-78
2023/07/21 09:08:50;;;;;;;5.60;2.30;;;;;;;25.44;45.59;100192.66;108023;1257;73261;-80
2023/07/21 09:11:17;;;;;;;3.90;2.40;;;;;;;25.55;44.64;100191.42;107775;1257;74333;-79
2023/07/21 09:13:53;;;;;;;4.40;2.40;;;;;;;24.93;44.95;100193.17;107979;1256;60408;-78
2023/07/21 09:16:21;;;;;;;3.30;2.20;;;;;;;24.88;45.61;100191.52;107964;1256;60330;-78
2023/07/21 09:18:48;;;;;;;3.20;2.10;;;;;;;24.94;45.37;100195.54;107976;1256;74067;-79
2023/07/21 09:21:22;;;;;;;3.50;1.90;;;;;;;25.05;44.32;100194.71;107843;1257;72746;-79
2023/07/21 09:23:49;;;;;;;3.10;2.10;;;;;;;25.79;43.12;100194.63;107976;1257;71378;-77
2023/07/21 09:26:23;;;;;;;5.30;2.30;;;;;;;26.01;42.44;100191.97;107931;1257;60596;-78
2023/07/21 09:28:51;;;;;;;3.90;2.00;;;;;;;26.10;41.24;100195.07;108065;1256;60033;-79
2023/07/21 09:31:29;;;;;;;4.30;2.10;;;;;;;26.09;41.22;100191.29;107960;1256;73728;-79
2023/07/21 09:34:08;;;;;;;4.70;2.10;;;;;;;26.15;41.81;100194.43;108054;1259;72845;-79
2023/07/21 09:36:35;;;;;;;3.50;2.10;;;;;;;26.27;41.03;100188.64;107974;1257;73831;-81
2023/07/21 09:39:04;;;;;;;4.60;1.90;;;;;;;26.36;41.10;100186.09;107956;1256;60451;-79
2023/07/21 09:41:32;;;;;;;2.80;2.00;;;;;;;26.47;41.09;100187.48;108018;1257;60236;-79
2023/07/21 09:43:59;;;;;;;3.30;1.80;;;;;;;26.59;41.35;100184.35;108000;1257;73891;-80
2023/07/21 09:46:26;;;;;;;3.90;2.00;;;;;;;26.71;40.73;100183.77;107704;1255;72445;-80
2023/07/21 09:48:53;;;;;;;4.70;1.90;;;;;;;26.72;40.37;100186.20;107971;1257;72682;-79
2023/07/21 09:51:20;;;;;;;4.00;1.90;;;;;;;26.80;40.49;100188.02;107956;1256;60430;-78
2023/07/21 09:53:49;;;;;;;3.00;1.80;;;;;;;26.86;39.66;100195.28;108008;1255;60473;-79
2023/07/21 09:56:16;;;;;;;4.20;1.80;;;;;;;26.81;38.56;100197.27;107951;1257;73628;-78
2023/07/21 09:58:52;;;;;;;3.10;1.80;;;;;;;26.81;39.27;100195.86;107863;1257;73101;-78
2023/07/21 10:01:19;;;;;;;4.00;2.00;;;;;;;26.89;39.27;100195.86;107917;1256;72778;-76
2023/07/21 10:03:47;;;;;;;2.70;1.60;;;;;;;26.96;38.67;100197.25;108015;1257;60277;-79
2023/07/21 10:06:15;;;;;;;3.60;1.80;;;;;;;26.96;38.26;100194.98;107661;1257;60327;-78
2023/07/21 10:08:42;;;;;;;3.30;1.80;;;;;;;26.84;37.83;100196.67;107706;1257;73926;-77
2023/07/21 10:11:09;;;;;;;3.50;1.90;;;;;;;26.81;38.68;100201.88;107691;1257;73984;-79
2023/07/21 10:13:44;;;;;;;4.90;2.00;;;;;;;26.93;38.04;100203.64;107947;1259;72632;-78
2023/07/21 10:16:13;;;;;;;2.60;1.60;;;;;;;27.07;38.21;100206.83;107984;1257;60443;-77
2023/07/21 10:19:05;;;;;;;2.80;1.60;;;;;;;27.11;37.98;100211.66;107975;1258;60472;-78
2023/07/21 10:21:47;;;;;;;2.90;1.80;;;;;;;27.09;38.17;100215.09;107959;1256;73947;-79
2023/07/21 10:24:25;;;;;;;2.60;1.50;;;;;;;27.09;38.11;100210.00;107948;1259;72826;-77
2023/07/21 10:26:56;;;;;;;3.20;1.90;;;;;;;27.10;37.92;100206.78;107954;1257;72216;-79
2023/07/21 10:29:23;;;;;;;2.90;1.80;;;;;;;27.13;37.93;100208.86;107965;1257;60218;-79
2023/07/21 10:31:54;;;;;;;4.50;1.90;;;;;;;27.17;37.99;100210.46;108011;1257;60351;-77
2023/07/21 10:34:32;;;;;;;3.40;1.60;;;;;;;27.19;37.96;100213.09;108000;1256;65077;-80
2023/07/21 10:37:02;;;;;;;3.40;1.70;;;;;;;27.15;37.08;100217.35;107581;1256;542246;-79
2023/07/21 10:39:33;;;;;;;2.50;1.60;;;;;;;27.12;36.79;100219.51;107876;1262;72762;-78
2023/07/21 10:42:03;;;;;;;4.30;1.60;;;;;;;27.16;37.00;100220.25;107940;1257;61736;-79
2023/07/21 10:44:41;;;;;;;4.10;1.70;;;;;;;27.27;37.09;100218.40;108008;1256;60260;-78
2023/07/21 10:47:12;;;;;;;2.90;1.80;;;;;;;27.35;37.19;100213.70;107972;1257;73980;-80
2023/07/21 10:49:39;;;;;;;2.40;1.50;;;;;;;27.20;37.87;100217.55;107989;1257;72684;-79
2023/07/21 10:52:06;;;;;;;2.60;1.80;;;;;;;26.63;38.92;100220.52;107931;1259;72615;-80
2023/07/21 10:54:35;;;;;;;3.10;1.50;;;;;;;27.12;38.10;100218.97;107957;1256;61572;-79
2023/07/21 10:57:04;;;;;;;2.90;1.60;;;;;;;27.19;37.62;100221.08;108009;1256;60327;-79
2023/07/21 10:59:36;;;;;;;2.90;1.40;;;;;;;27.11;36.65;100224.42;107993;1256;71752;-77
2023/07/21 11:02:06;;;;;;;4.80;1.60;;;;;;;26.96;36.90;100222.39;107979;1256;71577;-76
2023/07/21 11:04:40;;;;;;;2.90;1.50;;;;;;;26.96;37.52;100217.06;108030;1256;72769;-77
2023/07/21 11:07:08;;;;;;;2.10;1.30;;;;;;;27.07;37.01;100210.83;108014;1257;60452;-79
2023/07/21 11:09:43;;;;;;;2.10;1.10;;;;;;;27.21;36.61;100213.88;107956;1256;60719;-78
2023/07/21 11:12:11;;;;;;;3.00;1.40;;;;;;;27.16;35.32;100211.55;107952;1257;73519;-77
2023/07/21 11:14:38;;;;;;;2.50;1.50;;;;;;;27.04;35.88;100217.39;107985;1256;72691;-78
2023/07/21 11:17:06;;;;;;;3.30;1.50;;;;;;;27.01;35.76;100209.05;107659;1257;73136;-79
2023/07/21 11:19:34;;;;;;;2.70;1.40;;;;;;;27.00;35.86;100211.08;107957;1258;60305;-79
2023/07/21 11:22:03;;;;;;;2.20;1.20;;;;;;;26.98;36.60;100209.17;108025;1255;60360;-79
2023/07/21 11:24:31;;;;;;;2.00;1.40;;;;;;;26.97;36.77;100210.11;108025;1259;73549;-79
2023/07/21 11:27:08;;;;;;;2.30;1.50;;;;;;;27.00;37.70;100213.66;108012;1257;71635;-80
2023/07/21 11:29:39;;;;;;;2.80;1.50;;;;;;;27.17;36.58;100217.52;108003;1259;72531;-78
2023/07/21 11:32:17;;;;;;;2.60;1.50;;;;;;;27.24;36.09;100216.73;107975;1257;61391;-79
2023/07/21 11:34:46;;;;;;;2.60;1.50;;;;;;;27.02;36.07;100220.50;108036;1256;60334;-79